KRWI/RWI METAR and TAF weather

Enter ICAO airport designator
Station Type Date Time Source
KRWI METAR 2019/12/10 18:53 UTC NOAA

KRWI 101853Z AUTO 20011G19KT 10SM FEW029 23/17 A2994 RMK AO2 SLP138 T02330172


Station Type Date Time Source
KRWI Decoded METAR 2019/12/10 18:53 UTC NOAA

ROCKY MOUNT-WILSON AIRPORT, NC, United States (KRWI) 35-51N 077-54W 47M
Dec 10, 2019 - 01:53 PM EST / 2019.12.10 1853 UTC
Wind: from the SSW (200 degrees) at 13 MPH (11 KT) gusting to 22 MPH (19 KT):0
Visibility: 10 mile(s):0
Sky conditions: mostly clear
Temperature: 73.9 F (23.3 C)
Dew Point: 63.0 F (17.2 C)
Relative Humidity: 68%
Pressure (altimeter): 29.94 in. Hg (1013 hPa)
ob: KRWI 101853Z AUTO 20011G19KT 10SM FEW029 23/17 A2994 RMK AO2 SLP138 T02330172
cycle: 19

Station Type Date Time Source
KRWI TAF 2019/12/10 18:36 UTC NOAA

TAF KRWI 101733Z 1018/1118 22011G21KT P6SM SCT020
FM102300 32011KT 4SM -RA BR BKN020
FM110500 34008G14KT 5SM -RA BR OVC012
FM111000 34010KT 5SM -RA BR BKN009 OVC012
FM111600 36010KT P6SM SCT025

Example: see airport list